createdAt,value
2022-10-25T00:00:31.480Z,3.90
2022-10-25T00:02:59.195Z,3.92
2022-10-25T00:05:27.020Z,3.75
2022-10-25T00:07:54.723Z,3.60
2022-10-25T00:10:24.931Z,4.20
2022-10-25T00:12:53.608Z,3.50
2022-10-25T00:15:21.942Z,4.25
2022-10-25T00:17:51.800Z,3.88
2022-10-25T00:20:20.324Z,3.50
2022-10-25T00:22:48.296Z,3.97
2022-10-25T00:25:16.362Z,3.65
2022-10-25T00:27:44.109Z,3.88
2022-10-25T00:30:13.474Z,4.30
2022-10-25T00:32:41.174Z,4.50
2022-10-25T00:35:10.950Z,3.80
2022-10-25T00:37:38.739Z,3.75
2022-10-25T00:40:07.534Z,5.07
2022-10-25T00:42:35.388Z,4.00
2022-10-25T00:45:04.933Z,3.65
2022-10-25T00:47:43.577Z,3.80
2022-10-25T00:50:21.223Z,3.83
2022-10-25T00:52:52.433Z,4.13
2022-10-25T00:55:22.839Z,3.60
2022-10-25T00:57:55.082Z,3.78
2022-10-25T01:00:23.421Z,4.25
2022-10-25T01:02:51.789Z,3.40
2022-10-25T01:05:21.556Z,4.03
2022-10-25T01:07:49.497Z,3.25
2022-10-25T01:10:17.447Z,3.72
2022-10-25T01:12:47.507Z,4.18
2022-10-25T01:15:18.100Z,4.10
2022-10-25T01:17:55.260Z,3.60
2022-10-25T01:21:08.866Z,3.78
2022-10-25T01:23:55.729Z,3.55
2022-10-25T01:26:53.563Z,3.88
2022-10-25T01:29:37.880Z,3.47
2022-10-25T01:32:11.199Z,3.35
2022-10-25T01:34:46.570Z,3.15
2022-10-25T01:37:23.063Z,4.18
2022-10-25T01:39:56.793Z,3.20
2022-10-25T01:42:31.908Z,3.53
2022-10-25T01:45:09.846Z,3.75
2022-10-25T01:47:44.883Z,3.75
2022-10-25T01:50:15.919Z,3.42
2022-10-25T01:52:43.697Z,2.97
2022-10-25T01:55:14.310Z,6.07
2022-10-25T01:57:59.075Z,7.13
2022-10-25T02:00:27.997Z,5.32
2022-10-25T02:03:11.589Z,3.53
2022-10-25T02:05:48.637Z,3.20
2022-10-25T02:08:26.374Z,3.45
2022-10-25T02:11:02.310Z,3.33
2022-10-25T02:13:37.494Z,3.40
2022-10-25T02:16:10.304Z,3.20
2022-10-25T02:18:45.379Z,4.00
2022-10-25T02:21:14.834Z,3.85
2022-10-25T02:23:44.023Z,3.33
2022-10-25T02:26:12.474Z,3.45
2022-10-25T02:28:41.941Z,3.40
2022-10-25T02:31:12.660Z,3.17
2022-10-25T02:33:44.059Z,3.78
2022-10-25T02:36:15.814Z,3.28
2022-10-25T02:38:44.965Z,3.17
2022-10-25T02:41:13.391Z,4.38
2022-10-25T02:43:41.189Z,5.00
2022-10-25T02:46:11.229Z,5.10
2022-10-25T02:48:40.658Z,4.35
2022-10-25T02:51:10.222Z,3.40
2022-10-25T02:53:38.077Z,3.80
2022-10-25T02:56:07.554Z,3.25
2022-10-25T02:58:37.575Z,3.65
2022-10-25T03:01:05.988Z,3.22
2022-10-25T03:03:34.419Z,3.65
2022-10-25T03:06:03.978Z,2.60
2022-10-25T03:08:32.050Z,3.08
2022-10-25T03:11:00.146Z,3.05
2022-10-25T03:13:28.203Z,2.88
2022-10-25T03:15:55.962Z,2.85
2022-10-25T03:18:23.734Z,3.47
2022-10-25T03:20:51.446Z,2.60
2022-10-25T03:23:20.494Z,3.40
2022-10-25T03:25:49.760Z,2.90
2022-10-25T03:28:19.787Z,3.10
2022-10-25T03:30:47.488Z,3.00
2022-10-25T03:33:15.215Z,2.70
2022-10-25T03:35:43.045Z,3.00
2022-10-25T03:38:10.824Z,2.78
2022-10-25T03:40:39.851Z,2.80
2022-10-25T03:43:07.671Z,3.25
2022-10-25T03:45:35.441Z,2.95
2022-10-25T03:48:03.157Z,2.93
2022-10-25T03:50:30.945Z,3.20
2022-10-25T03:52:58.767Z,3.20
2022-10-25T03:55:26.512Z,2.90
2022-10-25T03:57:55.548Z,2.72
2022-10-25T04:00:23.305Z,2.70
2022-10-25T04:02:59.331Z,2.78
2022-10-25T04:05:30.398Z,2.83
2022-10-25T04:07:58.235Z,3.03
2022-10-25T04:10:26.385Z,2.92
2022-10-25T04:12:55.695Z,2.60
2022-10-25T04:15:23.811Z,2.72
2022-10-25T04:17:52.027Z,3.17
2022-10-25T04:20:20.898Z,3.33
2022-10-25T04:22:54.228Z,2.95
2022-10-25T04:25:22.047Z,2.45
2022-10-25T04:27:49.910Z,2.85
2022-10-25T04:30:19.292Z,2.67
2022-10-25T04:32:47.526Z,2.50
2022-10-25T04:35:15.581Z,2.30
2022-10-25T04:37:43.488Z,2.38
2022-10-25T04:40:12.374Z,2.95
2022-10-25T04:42:40.088Z,2.22
2022-10-25T04:45:08.477Z,2.35
2022-10-25T04:47:37.569Z,2.40
2022-10-25T04:50:10.049Z,2.35
2022-10-25T04:52:37.865Z,2.60
2022-10-25T04:55:06.230Z,2.72
2022-10-25T04:57:33.916Z,2.92
2022-10-25T05:00:01.594Z,2.40
2022-10-25T05:02:29.525Z,2.78
2022-10-25T05:04:58.552Z,2.63
2022-10-25T05:07:26.339Z,2.40
2022-10-25T05:09:54.004Z,2.83
2022-10-25T05:12:23.801Z,2.72
2022-10-25T05:14:51.487Z,2.60
2022-10-25T05:17:19.196Z,3.20
2022-10-25T05:19:46.871Z,2.88
2022-10-25T05:22:15.894Z,2.60
2022-10-25T05:24:43.571Z,2.47
2022-10-25T05:27:11.273Z,2.38
2022-10-25T05:29:38.971Z,2.80
2022-10-25T05:32:06.992Z,2.45
2022-10-25T05:34:34.812Z,2.78
2022-10-25T05:37:02.572Z,3.05
2022-10-25T05:39:31.597Z,2.80
2022-10-25T05:42:00.237Z,2.85
2022-10-25T05:44:27.919Z,3.03
2022-10-25T05:46:55.893Z,2.80
2022-10-25T05:49:23.654Z,2.80
2022-10-25T05:51:51.453Z,3.30
2022-10-25T05:54:19.246Z,2.95
2022-10-25T05:56:48.248Z,3.40
2022-10-25T05:59:16.242Z,2.70
2022-10-25T06:01:45.951Z,2.70
2022-10-25T06:04:14.493Z,2.88
2022-10-25T06:06:43.611Z,2.67
2022-10-25T06:09:12.181Z,2.83
2022-10-25T06:11:40.876Z,2.85
2022-10-25T06:14:11.455Z,2.40
2022-10-25T06:16:39.577Z,4.30
2022-10-25T06:19:07.529Z,2.80
2022-10-25T06:21:35.380Z,2.97
2022-10-25T06:24:04.210Z,2.50
2022-10-25T06:26:32.699Z,2.72
2022-10-25T06:29:01.799Z,2.67
2022-10-25T06:31:31.626Z,2.85
2022-10-25T06:34:00.436Z,2.58
2022-10-25T06:36:28.554Z,2.70
2022-10-25T06:38:56.250Z,2.75
2022-10-25T06:41:27.575Z,2.87
2022-10-25T06:43:55.690Z,2.35
2022-10-25T06:46:25.322Z,2.65
2022-10-25T06:48:56.587Z,2.30
2022-10-25T06:51:25.617Z,2.25
2022-10-25T06:53:55.859Z,2.38
2022-10-25T06:56:23.752Z,2.30
2022-10-25T06:58:51.694Z,2.55
2022-10-25T07:01:21.961Z,2.53
2022-10-25T07:03:53.434Z,2.35
2022-10-25T07:06:26.604Z,2.47
2022-10-25T07:08:55.956Z,2.88
2022-10-25T07:11:25.091Z,2.30
2022-10-25T07:13:52.872Z,2.45
2022-10-25T07:16:21.600Z,2.83
2022-10-25T07:18:50.002Z,2.22
2022-10-25T07:21:20.207Z,2.40
2022-10-25T07:23:50.389Z,2.72
2022-10-25T07:26:20.170Z,2.38
2022-10-25T07:28:49.799Z,2.22
2022-10-25T07:31:19.690Z,2.50
2022-10-25T07:33:47.569Z,3.03
2022-10-25T07:36:15.274Z,2.88
2022-10-25T07:38:42.975Z,2.15
2022-10-25T07:41:12.054Z,2.33
2022-10-25T07:43:39.938Z,2.22
2022-10-25T07:46:08.160Z,2.10
2022-10-25T07:48:35.954Z,2.53
2022-10-25T07:51:04.586Z,2.47
2022-10-25T07:53:32.503Z,2.20
2022-10-25T07:56:00.215Z,2.50
2022-10-25T07:58:29.407Z,2.38
2022-10-25T08:01:01.974Z,2.60
2022-10-25T08:03:29.970Z,2.40
2022-10-25T08:05:57.995Z,2.70
2022-10-25T08:08:25.848Z,2.35
2022-10-25T08:10:54.263Z,2.42
2022-10-25T08:13:22.154Z,2.30
2022-10-25T08:15:55.140Z,2.15
2022-10-25T08:18:23.490Z,2.33
2022-10-25T08:21:06.735Z,2.53
2022-10-25T08:23:35.114Z,1.95
2022-10-25T08:26:03.291Z,2.30
2022-10-25T08:28:31.660Z,2.33
2022-10-25T08:31:01.837Z,2.53
2022-10-25T08:33:29.757Z,2.47
2022-10-25T08:36:00.264Z,2.05
2022-10-25T08:38:27.962Z,2.08
2022-10-25T08:41:00.928Z,2.30
2022-10-25T08:43:49.396Z,2.60
2022-10-25T08:46:22.964Z,2.15
2022-10-25T08:48:55.048Z,3.00
2022-10-25T08:51:27.835Z,2.10
2022-10-25T08:54:01.305Z,1.95
2022-10-25T08:56:30.913Z,2.28
2022-10-25T08:59:02.082Z,1.80
2022-10-25T09:01:37.657Z,2.33
2022-10-25T09:04:05.783Z,2.30
2022-10-25T09:06:38.206Z,2.45
2022-10-25T09:09:23.052Z,2.95
2022-10-25T09:12:02.907Z,2.00
2022-10-25T09:14:39.218Z,2.83
2022-10-25T09:17:17.594Z,1.83
2022-10-25T09:20:03.244Z,2.08
2022-10-25T09:22:32.211Z,1.88
2022-10-25T09:25:03.811Z,4.07
2022-10-25T09:27:36.672Z,2.13
2022-10-25T09:30:07.885Z,1.85
2022-10-25T09:32:40.671Z,1.70
2022-10-25T09:35:16.161Z,1.83
2022-10-25T09:37:48.825Z,2.10
2022-10-25T09:40:20.542Z,1.80
2022-10-25T09:42:53.520Z,1.80
2022-10-25T09:45:25.892Z,1.98
2022-10-25T09:48:02.646Z,1.88
2022-10-25T09:50:33.489Z,1.80
2022-10-25T09:53:12.404Z,2.03
2022-10-25T09:55:47.055Z,2.30
2022-10-25T09:58:19.928Z,1.60
2022-10-25T10:00:47.728Z,2.03
2022-10-25T10:03:16.924Z,1.67
2022-10-25T10:05:49.905Z,1.80
2022-10-25T10:08:17.855Z,1.80
2022-10-25T10:10:47.907Z,2.25
2022-10-25T10:13:20.618Z,1.90
2022-10-25T10:15:57.040Z,1.58
2022-10-25T10:18:31.768Z,1.80
2022-10-25T10:21:06.766Z,1.83
2022-10-25T10:23:38.253Z,1.90
2022-10-25T10:26:13.745Z,1.80
2022-10-25T10:28:46.627Z,2.20
2022-10-25T10:31:14.679Z,3.45
2022-10-25T10:33:49.424Z,2.90
2022-10-25T10:36:26.336Z,2.67
2022-10-25T10:38:54.400Z,3.85
2022-10-25T10:41:27.670Z,2.00
2022-10-25T10:44:09.865Z,2.83
2022-10-25T10:46:37.773Z,2.10
2022-10-25T10:49:06.823Z,1.95
2022-10-25T10:51:45.149Z,2.00
2022-10-25T10:54:27.236Z,1.98
2022-10-25T10:56:57.576Z,2.30
2022-10-25T10:59:30.580Z,1.77
2022-10-25T11:01:58.954Z,3.20
2022-10-25T11:04:28.060Z,1.98
2022-10-25T11:07:14.223Z,1.70
2022-10-25T11:09:41.932Z,1.90
2022-10-25T11:12:14.747Z,1.98
2022-10-25T11:14:42.585Z,1.70
2022-10-25T11:17:16.928Z,2.10
2022-10-25T11:19:58.158Z,1.85
2022-10-25T11:22:39.428Z,1.77
2022-10-25T11:25:20.851Z,1.75
2022-10-25T11:27:59.407Z,1.80
2022-10-25T11:30:34.501Z,2.03
2022-10-25T11:33:31.614Z,1.70
2022-10-25T11:36:16.162Z,2.13
2022-10-25T11:38:56.498Z,2.25
2022-10-25T11:41:33.899Z,1.77
2022-10-25T11:44:35.082Z,2.10
2022-10-25T11:47:09.005Z,1.77
2022-10-25T11:49:56.868Z,2.15
2022-10-25T11:52:53.334Z,1.75
2022-10-25T11:55:32.935Z,1.92
2022-10-25T11:58:11.153Z,1.73
2022-10-25T12:00:51.020Z,2.15
2022-10-25T12:03:27.034Z,2.00
2022-10-25T12:06:04.307Z,1.73
2022-10-25T12:08:43.758Z,1.70
2022-10-25T12:11:17.907Z,1.60
2022-10-25T12:13:50.142Z,2.00
2022-10-25T12:16:20.937Z,2.35
2022-10-25T12:18:51.199Z,2.03
2022-10-25T12:21:22.707Z,1.80
2022-10-25T12:23:54.124Z,1.75
2022-10-25T12:26:30.191Z,1.80
2022-10-25T12:29:00.575Z,2.00
2022-10-25T12:31:30.513Z,1.63
2022-10-25T12:34:03.028Z,1.90
2022-10-25T12:36:36.041Z,1.63
2022-10-25T12:39:13.667Z,2.00
2022-10-25T12:41:45.360Z,1.95
2022-10-25T12:44:33.252Z,2.00
2022-10-25T12:47:25.687Z,2.17
2022-10-25T12:50:14.648Z,1.90
2022-10-25T12:52:58.150Z,2.05
2022-10-25T12:55:52.078Z,2.08
2022-10-25T12:58:38.599Z,2.03
2022-10-25T13:01:24.626Z,1.60
2022-10-25T13:04:32.739Z,1.95
2022-10-25T13:07:01.702Z,2.10
2022-10-25T13:09:33.353Z,2.05
2022-10-25T13:12:05.223Z,2.38
2022-10-25T13:14:35.804Z,2.20
2022-10-25T13:17:40.697Z,2.33
2022-10-25T13:20:45.066Z,2.05
2022-10-25T13:24:02.677Z,1.88
2022-10-25T13:26:55.345Z,2.00
2022-10-25T13:30:03.063Z,2.00
2022-10-25T13:32:33.809Z,1.80
2022-10-25T13:35:03.741Z,1.60
2022-10-25T13:37:45.282Z,1.90
2022-10-25T13:40:23.116Z,1.83
2022-10-25T13:42:59.632Z,1.60
2022-10-25T13:45:40.066Z,1.95
2022-10-25T13:48:28.966Z,1.70
2022-10-25T13:50:58.997Z,2.08
2022-10-25T13:53:32.801Z,1.73
2022-10-25T13:56:06.079Z,2.20
2022-10-25T13:58:48.477Z,1.75
2022-10-25T14:01:56.583Z,1.63
2022-10-25T14:04:38.395Z,2.03
2022-10-25T14:07:44.533Z,1.85
2022-10-25T14:10:20.922Z,1.58
2022-10-25T14:12:50.698Z,1.30
2022-10-25T14:15:30.131Z,1.55
2022-10-25T14:17:59.772Z,1.25
2022-10-25T14:20:30.809Z,1.63
2022-10-25T14:23:01.709Z,1.70
2022-10-25T14:25:37.903Z,1.40
2022-10-25T14:28:14.702Z,1.58
2022-10-25T14:30:44.832Z,1.50
2022-10-25T14:33:29.542Z,1.55
2022-10-25T14:36:08.121Z,1.70
2022-10-25T14:38:49.662Z,1.60
2022-10-25T14:41:21.893Z,1.40
2022-10-25T14:43:49.687Z,1.52
2022-10-25T14:46:18.810Z,1.58
2022-10-25T14:48:48.341Z,1.35
2022-10-25T14:51:22.022Z,1.05
2022-10-25T14:53:53.820Z,1.60
2022-10-25T14:56:24.798Z,2.00
2022-10-25T14:58:52.774Z,1.40
2022-10-25T15:01:22.721Z,1.35
2022-10-25T15:03:52.864Z,1.65
2022-10-25T15:06:26.027Z,1.50
2022-10-25T15:09:16.142Z,1.45
2022-10-25T15:12:05.221Z,1.70
2022-10-25T15:14:33.373Z,1.70
2022-10-25T15:17:05.979Z,1.65
2022-10-25T15:19:33.686Z,1.63
2022-10-25T15:22:10.826Z,1.83
2022-10-25T15:24:46.116Z,1.80
2022-10-25T15:27:27.945Z,1.55
2022-10-25T15:29:55.778Z,1.85
2022-10-25T15:32:26.416Z,1.60
2022-10-25T15:34:56.228Z,1.75
2022-10-25T15:37:27.217Z,2.10
2022-10-25T15:39:56.422Z,1.90
2022-10-25T15:42:26.306Z,1.90
2022-10-25T15:44:54.622Z,1.50
2022-10-25T15:47:30.154Z,1.92
2022-10-25T15:50:15.097Z,1.85
2022-10-25T15:52:43.368Z,1.98
2022-10-25T15:55:19.547Z,2.22
2022-10-25T15:57:47.858Z,2.42
2022-10-25T16:00:16.946Z,1.65
2022-10-25T16:02:45.497Z,2.28
2022-10-25T16:05:20.903Z,1.75
2022-10-25T16:07:48.829Z,2.03
2022-10-25T16:10:17.364Z,2.30
2022-10-25T16:12:49.185Z,2.30
2022-10-25T16:15:19.167Z,2.50
2022-10-25T16:17:48.686Z,2.22
2022-10-25T16:20:21.310Z,2.42
2022-10-25T16:22:50.415Z,2.15
2022-10-25T16:25:19.615Z,2.45
2022-10-25T16:27:48.415Z,2.80
2022-10-25T16:30:18.574Z,3.53
2022-10-25T16:32:46.760Z,3.00
2022-10-25T16:35:15.837Z,2.47
2022-10-25T16:37:45.087Z,2.40
2022-10-25T16:40:16.142Z,2.20
2022-10-25T16:42:44.136Z,1.90
2022-10-25T16:45:18.007Z,3.10
2022-10-25T16:47:45.753Z,5.28
2022-10-25T16:50:13.584Z,5.57
2022-10-25T16:52:41.356Z,4.18
2022-10-25T16:55:11.600Z,5.95
2022-10-25T16:57:39.424Z,5.20
2022-10-25T17:00:08.301Z,4.68
2022-10-25T17:02:36.161Z,4.47
2022-10-25T17:05:03.934Z,5.30
2022-10-25T17:07:31.780Z,5.13
2022-10-25T17:09:59.674Z,4.03
2022-10-25T17:12:28.731Z,4.30
2022-10-25T17:14:56.425Z,4.47
2022-10-25T17:17:24.338Z,6.10
2022-10-25T17:19:52.184Z,4.80
2022-10-25T17:22:20.667Z,5.05
2022-10-25T17:24:48.387Z,4.90
2022-10-25T17:27:16.171Z,5.28
2022-10-25T17:29:45.198Z,4.93
2022-10-25T17:32:12.954Z,4.95
2022-10-25T17:34:40.629Z,4.78
2022-10-25T17:37:08.346Z,4.05
2022-10-25T17:39:36.058Z,4.13
2022-10-25T17:42:03.770Z,3.70
2022-10-25T17:44:31.486Z,3.50
2022-10-25T17:47:03.002Z,3.53
2022-10-25T17:49:31.028Z,3.73
2022-10-25T17:51:58.786Z,3.08
2022-10-25T17:54:26.637Z,2.85
2022-10-25T17:56:58.441Z,4.38
2022-10-25T17:59:27.769Z,4.13
2022-10-25T18:01:55.682Z,4.00
2022-10-25T18:04:25.506Z,3.63
2022-10-25T18:06:53.266Z,3.80
2022-10-25T18:09:22.748Z,3.60
2022-10-25T18:11:50.573Z,3.87
2022-10-25T18:14:18.434Z,3.70
2022-10-25T18:16:46.278Z,4.77
2022-10-25T18:19:15.306Z,5.03
2022-10-25T18:21:44.398Z,5.03
2022-10-25T18:24:14.192Z,4.83
2022-10-25T18:26:42.057Z,4.37
2022-10-25T18:29:10.888Z,4.33
2022-10-25T18:31:38.614Z,4.70
2022-10-25T18:34:06.510Z,3.80
2022-10-25T18:36:34.297Z,4.10
2022-10-25T18:39:03.404Z,4.40
2022-10-25T18:41:32.917Z,4.13
2022-10-25T18:44:02.326Z,4.27
2022-10-25T18:46:31.942Z,4.13
2022-10-25T18:48:59.720Z,4.40
2022-10-25T18:51:29.205Z,4.80
2022-10-25T18:53:57.678Z,4.30
2022-10-25T18:56:26.997Z,4.23
2022-10-25T18:58:56.800Z,4.17
2022-10-25T19:01:27.955Z,4.33
2022-10-25T19:03:57.690Z,4.20
2022-10-25T19:06:26.289Z,4.10
2022-10-25T19:08:54.485Z,3.97
2022-10-25T19:11:22.429Z,4.27
2022-10-25T19:13:55.256Z,3.50
2022-10-25T19:16:23.573Z,3.93
2022-10-25T19:18:51.661Z,3.30
2022-10-25T19:21:20.043Z,3.60
2022-10-25T19:23:48.534Z,4.07
2022-10-25T19:26:19.517Z,4.30
2022-10-25T19:28:48.350Z,3.80
2022-10-25T19:31:18.717Z,4.10
2022-10-25T19:33:47.240Z,4.93
2022-10-25T19:36:15.806Z,5.13
2022-10-25T19:38:45.056Z,5.07
2022-10-25T19:41:15.977Z,6.13
2022-10-25T19:43:43.723Z,6.23
2022-10-25T19:46:13.161Z,4.73
2022-10-25T19:48:43.146Z,4.23
2022-10-25T19:51:12.331Z,4.77
2022-10-25T19:53:40.556Z,3.70
2022-10-25T19:56:10.753Z,3.90
2022-10-25T19:58:38.597Z,4.67
2022-10-25T20:01:08.793Z,4.50
2022-10-25T20:03:37.467Z,4.50
2022-10-25T20:06:09.675Z,4.30
2022-10-25T20:08:39.456Z,4.37
2022-10-25T20:11:08.466Z,5.37
2022-10-25T20:13:36.197Z,5.37
2022-10-25T20:16:04.245Z,4.93
2022-10-25T20:18:34.225Z,4.70
2022-10-25T20:21:03.991Z,4.90
2022-10-25T20:23:33.155Z,5.30
2022-10-25T20:26:01.020Z,4.90
2022-10-25T20:28:28.691Z,5.33
2022-10-25T20:31:03.278Z,5.60
2022-10-25T20:33:31.006Z,5.37
2022-10-25T20:36:02.561Z,5.67
2022-10-25T20:38:30.868Z,6.17
2022-10-25T20:41:05.218Z,5.20
2022-10-25T20:43:33.664Z,5.30
2022-10-25T20:46:01.778Z,5.17
2022-10-25T20:48:29.731Z,4.50
2022-10-25T20:50:58.011Z,5.07
2022-10-25T20:53:25.834Z,4.60
2022-10-25T20:55:53.547Z,4.70
2022-10-25T20:58:23.872Z,5.27
2022-10-25T21:00:54.665Z,4.57
2022-10-25T21:03:22.913Z,4.90
2022-10-25T21:05:53.492Z,5.40
2022-10-25T21:08:22.877Z,4.77
2022-10-25T21:10:54.641Z,4.00
2022-10-25T21:13:23.744Z,4.77
2022-10-25T21:15:52.139Z,4.63
2022-10-25T21:18:20.622Z,4.90
2022-10-25T21:20:49.296Z,5.83
2022-10-25T21:23:17.000Z,5.97
2022-10-25T21:25:44.701Z,5.53
2022-10-25T21:28:12.414Z,6.47
2022-10-25T21:30:41.417Z,5.70
2022-10-25T21:33:09.106Z,6.10
2022-10-25T21:35:36.780Z,5.30
2022-10-25T21:38:04.463Z,4.80
2022-10-25T21:40:32.134Z,4.73
2022-10-25T21:42:59.822Z,4.63
2022-10-25T21:45:27.571Z,4.53
2022-10-25T21:47:56.607Z,4.63
2022-10-25T21:50:24.416Z,4.40
2022-10-25T21:52:53.923Z,5.07
2022-10-25T21:55:21.635Z,4.50
2022-10-25T21:57:53.257Z,4.23
2022-10-25T22:00:22.055Z,4.40
2022-10-25T22:02:49.743Z,4.23
2022-10-25T22:05:18.811Z,4.60
2022-10-25T22:07:46.727Z,4.50
2022-10-25T22:10:14.896Z,4.47
2022-10-25T22:12:42.572Z,4.30
2022-10-25T22:15:10.686Z,4.40
2022-10-25T22:17:38.375Z,4.33
2022-10-25T22:20:07.507Z,3.90
2022-10-25T22:22:36.536Z,3.90
2022-10-25T22:25:04.491Z,4.23
2022-10-25T22:27:32.240Z,4.50
2022-10-25T22:29:59.954Z,4.13
2022-10-25T22:32:27.955Z,4.70
2022-10-25T22:34:55.638Z,4.27
2022-10-25T22:37:23.331Z,5.10
2022-10-25T22:39:52.326Z,4.20
2022-10-25T22:42:20.023Z,4.30
2022-10-25T22:44:47.694Z,4.70
2022-10-25T22:47:15.388Z,4.53
2022-10-25T22:49:43.174Z,4.83
2022-10-25T22:52:11.431Z,4.43
2022-10-25T22:54:39.103Z,3.70
2022-10-25T22:57:08.148Z,4.23
2022-10-25T22:59:35.845Z,4.47
2022-10-25T23:02:03.547Z,4.10
2022-10-25T23:04:31.277Z,4.07
2022-10-25T23:06:59.039Z,3.37
2022-10-25T23:11:55.316Z,4.10
2022-10-25T23:14:24.434Z,3.67
2022-10-25T23:16:52.136Z,4.30
2022-10-25T23:19:19.817Z,3.80
2022-10-25T23:21:47.749Z,4.30
2022-10-25T23:24:15.438Z,3.87
2022-10-25T23:26:43.195Z,3.27
2022-10-25T23:29:12.668Z,2.80
2022-10-25T23:31:41.703Z,3.20
2022-10-25T23:34:09.559Z,3.57
2022-10-25T23:36:38.191Z,3.17
2022-10-25T23:39:07.847Z,3.23
2022-10-25T23:41:35.675Z,3.07
2022-10-25T23:44:03.430Z,3.27
2022-10-25T23:46:31.150Z,3.03
2022-10-25T23:49:00.178Z,2.80
2022-10-25T23:51:27.883Z,2.53
2022-10-25T23:53:55.571Z,2.10
2022-10-25T23:56:23.288Z,2.50
2022-10-25T23:58:53.690Z,2.60
